Briefing drone pour Beaurieux

Rechercher une autre localisation

Conditions de vol :


Nous sommes le : Samedi 16 janvier 2021
Il est 05:24 UTC (06:24 LT)

Lever de soleil : 07:08 UTC (08:08 LT)
Coucher de soleil : 16:41 UTC (17:41 LT)

Météo

L'essentiel des conditions de vol

VIGILANCE MÉTÉO FRANCE - Aisne (02)
Vigilance Orange : Neige-verglas
CARTE TEMSI
CARTES DES FRONTS
METAR de LFQA
LFQA 160500Z AUTO 10002KT 4400 BR OVC043 M04/M04 Q1029

Date d'émission: 16/01/2021
Heure d'émission: 05:00 UTC
Vent: 100° pour 2 KT (4 km/h)
Visibilité horizontale: 4400 m
Plafond :
- Couvert à 4300ft (1311m)
Température: -4 °C
Point de rosée: -4 °C
Humidité: 100%
Pression (QNH): 1029 hPa
Conditions: Brume
Prévision 24h pour Reims (17 km)
Vent : 289° pour 4 KT (16 km/h)
Temperature Maxi: 4 °C
Temperature Min: 4 °C
Humidité : 98%
Condition : Couvert



Warning: count(): Parameter must be an array or an object that implements Countable in /homepages/6/d509196549/htdocs/droneoxygene/briefing.php on line 743
WEBCAM POUR BEAURIEUX

Réglementation

Voler en sécurité

CARTES AERONAUTIQUE 1/500.000
CARTES VAC (LFQA)
SUP AIP




Chargement des AIP...
NOTAM (BEAURIEUX + Terrain à proximité / FIR )




Chargement des NOTAMS...
CONTACT PREFECTURE 02


Avertissement : Les données mises à disposition sont indicatives. Oxygène Drone ne pourra être tenu responsable de dégâts causés aux biens et aux personnes.